Time;durP1;ratioP1;P1;durP2;ratioP2;P2;SDS_P1;SDS_P2;PMS_P1;PMS_P2;Temp;Humidity;BMP_temperature;BMP_pressure;BME280_temperature;BME280_humidity;BME280_pressure;Samples;Min_cycle;Max_cycle;Signal;HPM_P1;HPM_P2
2022/10/06 00:01:36;;;;;;;8.33;4.23;;;;;;;12.14;100.00;97143.38;5041515;28;20590;-71
2022/10/06 00:04:02;;;;;;;12.70;4.40;;;;;;;12.05;100.00;97147.00;5041042;28;20598;-71
2022/10/06 00:06:29;;;;;;;13.47;4.77;;;;;;;12.00;100.00;97149.31;5041972;28;20220;-72
2022/10/06 00:08:55;;;;;;;8.47;4.40;;;;;;;11.97;100.00;97142.53;5041844;28;20206;-72
2022/10/06 00:11:22;;;;;;;9.07;4.40;;;;;;;11.84;100.00;97152.75;5041630;28;20221;-72
2022/10/06 00:13:48;;;;;;;8.85;4.18;;;;;;;11.83;100.00;97155.56;5041148;28;20579;-70
2022/10/06 00:16:20;;;;;;;6.53;3.93;;;;;;;11.83;100.00;97155.56;5041420;28;20205;-70
2022/10/06 00:18:48;;;;;;;6.40;3.58;;;;;;;11.72;100.00;97158.50;5041803;28;20201;-72
2022/10/06 00:21:15;;;;;;;7.87;3.80;;;;;;;11.57;100.00;97163.59;5042443;28;20229;-72
2022/10/06 00:23:42;;;;;;;5.87;3.60;;;;;;;11.47;100.00;97162.03;5044504;28;20217;-70
2022/10/06 00:26:11;;;;;;;6.17;3.47;;;;;;;11.53;100.00;97160.59;5045109;28;20570;-72
2022/10/06 00:28:38;;;;;;;8.40;3.50;;;;;;;11.47;100.00;97156.75;5044918;28;20201;-72
2022/10/06 00:31:05;;;;;;;6.17;3.77;;;;;;;11.42;100.00;97158.19;5044993;28;20221;-72
2022/10/06 00:33:32;;;;;;;8.03;3.60;;;;;;;11.43;100.00;97162.50;5044543;28;20205;-71
2022/10/06 00:36:00;;;;;;;6.00;3.10;;;;;;;11.43;100.00;97163.34;5045111;28;20227;-71
2022/10/06 00:38:26;;;;;;;6.00;3.53;;;;;;;11.25;100.00;97162.63;5044570;28;20193;-71
2022/10/06 00:40:53;;;;;;;8.90;4.07;;;;;;;11.24;100.00;97166.25;5044720;28;20221;-71
2022/10/06 00:43:43;;;;;;;10.57;4.10;;;;;;;11.41;100.00;97165.31;5044520;28;20204;-72
2022/10/06 00:46:15;;;;;;;6.37;3.57;;;;;;;11.28;100.00;97164.13;5045013;28;20229;-72
2022/10/06 00:48:43;;;;;;;6.50;3.00;;;;;;;11.20;100.00;97164.91;5044670;28;20300;-71
2022/10/06 00:51:11;;;;;;;5.00;3.47;;;;;;;11.16;100.00;97174.13;5044767;28;20214;-72
2022/10/06 00:53:38;;;;;;;4.60;3.07;;;;;;;11.06;100.00;97173.41;5043832;28;20202;-71
2022/10/06 00:56:04;;;;;;;5.37;3.57;;;;;;;11.07;100.00;97177.72;5044333;28;20689;-72
2022/10/06 00:58:31;;;;;;;6.43;3.37;;;;;;;11.03;100.00;97171.06;5044319;28;20205;-70
2022/10/06 01:00:59;;;;;;;5.50;3.37;;;;;;;11.11;100.00;97181.69;5044602;28;20227;-72
2022/10/06 01:03:31;;;;;;;6.10;3.40;;;;;;;11.13;100.00;97174.41;5043644;28;20193;-71
2022/10/06 01:05:58;;;;;;;7.67;3.60;;;;;;;11.13;100.00;97179.69;5043666;28;20244;-72
2022/10/06 01:08:26;;;;;;;6.70;3.83;;;;;;;11.27;100.00;97181.75;5044409;28;20588;-70
2022/10/06 01:10:53;;;;;;;9.20;4.00;;;;;;;11.27;100.00;97176.47;5044321;28;20487;-70
2022/10/06 01:13:20;;;;;;;8.23;3.97;;;;;;;11.39;100.00;97177.84;5043956;28;20288;-70
2022/10/06 01:15:51;;;;;;;13.07;4.00;;;;;;;11.56;100.00;97183.03;5044167;28;20598;-70
2022/10/06 01:18:20;;;;;;;6.87;4.30;;;;;;;11.53;100.00;97187.81;5044131;28;20205;-72
2022/10/06 01:20:50;;;;;;;9.77;4.20;;;;;;;11.58;100.00;97188.16;5043433;28;20506;-71
2022/10/06 01:23:19;;;;;;;6.50;3.90;;;;;;;11.61;100.00;97186.03;5043122;28;20201;-71
2022/10/06 01:25:46;;;;;;;4.80;3.70;;;;;;;11.57;100.00;97181.25;5043835;28;20240;-72
2022/10/06 01:28:14;;;;;;;8.37;4.40;;;;;;;11.62;100.00;97187.69;5043804;28;20197;-71
2022/10/06 01:30:49;;;;;;;8.53;3.53;;;;;;;11.65;100.00;97182.06;5044002;28;20225;-72
2022/10/06 01:33:16;;;;;;;8.87;3.87;;;;;;;11.65;100.00;97179.44;5042489;28;20661;-70
2022/10/06 01:35:45;;;;;;;8.50;4.40;;;;;;;11.71;100.00;97185.88;5043979;28;20197;-72
2022/10/06 01:38:12;;;;;;;5.67;3.53;;;;;;;11.57;100.00;97189.97;5043458;28;20209;-71
2022/10/06 01:40:39;;;;;;;5.93;4.00;;;;;;;11.63;100.00;97188.50;5043927;28;20228;-71
2022/10/06 01:43:06;;;;;;;12.13;3.87;;;;;;;11.53;100.00;97187.81;5042852;28;20228;-72
2022/10/06 01:45:33;;;;;;;6.53;3.33;;;;;;;11.52;100.00;97188.81;5043294;28;20221;-71
2022/10/06 01:47:59;;;;;;;8.23;3.10;;;;;;;11.43;100.00;97184.47;5043718;28;20209;-72
2022/10/06 01:50:26;;;;;;;5.43;3.33;;;;;;;11.37;100.00;97185.09;5043472;28;20231;-71
2022/10/06 01:52:54;;;;;;;4.70;2.97;;;;;;;11.29;100.00;97184.22;5042889;28;20205;-69
2022/10/06 01:55:21;;;;;;;4.10;2.97;;;;;;;11.10;100.00;97190.56;5043629;28;20221;-71
2022/10/06 01:57:49;;;;;;;4.67;3.17;;;;;;;11.11;100.00;97186.09;5043392;28;20197;-72
2022/10/06 02:00:16;;;;;;;4.63;3.17;;;;;;;10.95;100.00;97189.50;5042949;28;20227;-72
2022/10/06 02:02:43;;;;;;;7.50;3.20;;;;;;;10.91;100.00;97195.25;5043041;28;20204;-72
2022/10/06 02:05:11;;;;;;;4.60;2.90;;;;;;;10.76;100.00;97188.06;5043368;28;20221;-71
2022/10/06 02:07:38;;;;;;;6.20;2.87;;;;;;;10.73;100.00;97193.63;5043290;28;20198;-71
2022/10/06 02:10:06;;;;;;;5.00;2.83;;;;;;;10.72;100.00;97194.63;5042873;28;20228;-71
2022/10/06 02:12:33;;;;;;;6.60;3.60;;;;;;;10.62;100.00;97194.72;5042522;28;20206;-71
2022/10/06 02:15:01;;;;;;;4.70;3.13;;;;;;;10.73;100.00;97186.56;5042983;28;20222;-71
2022/10/06 02:17:28;;;;;;;7.93;3.50;;;;;;;10.56;100.00;97195.31;5043015;28;20196;-71
2022/10/06 02:19:55;;;;;;;6.10;3.23;;;;;;;10.61;100.00;97186.97;5042828;28;20616;-70
2022/10/06 02:22:21;;;;;;;7.47;3.30;;;;;;;10.57;100.00;97193.53;5042977;28;20410;-70
2022/10/06 02:24:48;;;;;;;5.50;3.50;;;;;;;10.65;100.00;97199.66;5042820;28;20568;-72
2022/10/06 02:27:14;;;;;;;10.93;4.17;;;;;;;10.61;100.00;97197.50;5042667;28;20318;-71
2022/10/06 02:29:41;;;;;;;8.13;3.40;;;;;;;10.64;100.00;97202.47;5043286;28;20208;-71
2022/10/06 02:32:09;;;;;;;7.33;3.97;;;;;;;10.69;100.00;97210.75;5042316;28;20225;-72
2022/10/06 02:34:36;;;;;;;6.70;4.03;;;;;;;10.56;100.00;97205.88;5042154;28;20220;-70
2022/10/06 02:37:02;;;;;;;5.13;3.57;;;;;;;10.49;100.00;97214.56;5042770;28;20203;-71
2022/10/06 02:39:29;;;;;;;6.83;3.80;;;;;;;10.44;100.00;97212.38;5042977;28;20199;-70
2022/10/06 02:41:55;;;;;;;7.27;3.93;;;;;;;10.51;100.00;97218.69;5042266;28;20705;-71
2022/10/06 02:44:23;;;;;;;7.13;4.10;;;;;;;10.53;100.00;97226.44;5041650;28;20197;-71
2022/10/06 02:46:51;;;;;;;6.23;3.90;;;;;;;10.53;100.00;97226.44;5042809;28;20260;-71
2022/10/06 02:49:18;;;;;;;8.00;3.83;;;;;;;10.53;100.00;97227.25;5042585;28;20205;-71
2022/10/06 02:51:45;;;;;;;6.20;3.73;;;;;;;10.54;100.00;97238.66;5042144;28;20703;-69
2022/10/06 02:54:12;;;;;;;7.50;4.63;;;;;;;10.51;100.00;97238.94;5042063;28;20209;-71
2022/10/06 02:56:38;;;;;;;13.20;4.20;;;;;;;10.54;100.00;97242.09;5042172;28;20199;-71
2022/10/06 02:59:05;;;;;;;9.37;4.70;;;;;;;10.59;100.00;97246.91;5041059;28;20205;-71
2022/10/06 03:01:31;;;;;;;10.10;6.10;;;;;;;10.60;100.00;97248.56;5042510;28;20229;-71
2022/10/06 03:03:58;;;;;;;8.10;4.93;;;;;;;10.54;100.00;97243.91;5041703;28;20228;-71
2022/10/06 03:06:28;;;;;;;11.57;4.80;;;;;;;10.65;100.00;97257.66;5042146;28;20228;-72
2022/10/06 03:08:57;;;;;;;11.10;5.60;;;;;;;10.55;100.00;97254.31;5042324;28;20211;-70
2022/10/06 03:11:25;;;;;;;10.50;5.57;;;;;;;10.51;100.00;97257.38;5042471;28;20304;-70
2022/10/06 03:13:53;;;;;;;9.93;5.77;;;;;;;10.50;100.00;97253.94;5041100;28;20641;-71
2022/10/06 03:16:21;;;;;;;10.43;5.73;;;;;;;10.56;100.00;97260.41;5042088;28;20193;-71
2022/10/06 03:18:49;;;;;;;8.97;5.43;;;;;;;10.56;100.00;97265.66;5042327;28;20193;-70
2022/10/06 03:21:16;;;;;;;8.57;4.80;;;;;;;10.58;100.00;97267.16;5041825;28;20224;-70
2022/10/06 03:23:46;;;;;;;8.43;4.83;;;;;;;10.64;100.00;97271.00;5041542;28;20733;-71
2022/10/06 03:26:14;;;;;;;8.27;4.43;;;;;;;10.61;100.00;97261.59;5041917;28;20225;-71
2022/10/06 03:28:40;;;;;;;8.50;4.70;;;;;;;10.61;100.00;97263.41;5041982;28;20201;-70
2022/10/06 03:31:07;;;;;;;13.43;6.13;;;;;;;10.64;100.00;97273.63;5041847;28;20604;-70
2022/10/06 03:33:34;;;;;;;23.43;9.77;;;;;;;10.58;100.00;97277.72;5041531;28;20201;-72
2022/10/06 03:36:02;;;;;;;19.13;9.20;;;;;;;10.69;100.00;97274.00;5041905;28;20200;-71
2022/10/06 03:38:30;;;;;;;12.63;6.63;;;;;;;10.73;100.00;97291.16;5041793;28;20292;-71
2022/10/06 03:41:06;;;;;;;9.20;5.23;;;;;;;10.72;100.00;97281.63;5041827;28;20252;-69
2022/10/06 03:43:34;;;;;;;13.03;6.07;;;;;;;10.59;100.00;97279.38;5041543;28;20232;-71
2022/10/06 03:46:01;;;;;;;17.00;7.90;;;;;;;10.54;100.00;97283.44;5041500;28;20224;-71
2022/10/06 03:48:28;;;;;;;20.57;8.20;;;;;;;10.51;100.00;97291.63;5041818;28;20213;-71
2022/10/06 03:50:55;;;;;;;18.03;8.07;;;;;;;10.60;100.00;97288.09;5041928;28;20228;-70
2022/10/06 03:53:24;;;;;;;14.67;6.50;;;;;;;10.57;100.00;97291.03;5041350;28;20209;-71
2022/10/06 03:55:58;;;;;;;15.17;6.33;;;;;;;10.65;100.00;97283.19;5043887;28;20206;-71
2022/10/06 03:58:26;;;;;;;11.17;6.07;;;;;;;10.70;100.00;97286.22;5045613;28;20197;-71
2022/10/06 04:00:59;;;;;;;8.67;4.40;;;;;;;10.82;100.00;97301.66;5045501;28;20221;-71
2022/10/06 04:03:25;;;;;;;8.80;4.37;;;;;;;10.71;100.00;97298.41;5045502;28;20197;-70
2022/10/06 04:05:53;;;;;;;7.10;4.20;;;;;;;10.79;100.00;97303.75;5045590;28;20229;-71
2022/10/06 04:08:20;;;;;;;8.27;4.40;;;;;;;10.75;100.00;97302.41;5045448;28;20583;-71
2022/10/06 04:10:46;;;;;;;8.43;3.97;;;;;;;10.81;100.00;97301.81;5045085;28;20221;-71
2022/10/06 04:13:15;;;;;;;10.37;4.33;;;;;;;10.92;100.00;97305.03;5044565;28;20205;-72
2022/10/06 04:15:43;;;;;;;11.93;4.10;;;;;;;10.92;100.00;97306.81;5045227;28;20693;-71
2022/10/06 04:18:10;;;;;;;14.33;4.43;;;;;;;10.83;100.00;97313.81;5045471;28;20210;-71
2022/10/06 04:20:37;;;;;;;9.67;5.10;;;;;;;10.82;100.00;97311.34;5045046;28;20221;-71
2022/10/06 04:23:05;;;;;;;9.80;4.70;;;;;;;10.77;100.00;97321.50;5044636;28;20209;-71
2022/10/06 04:25:31;;;;;;;9.20;5.80;;;;;;;10.77;100.00;97322.38;5044929;28;20243;-71
2022/10/06 04:27:58;;;;;;;15.33;4.60;;;;;;;10.84;100.00;97325.22;5045021;28;20252;-71
2022/10/06 04:30:25;;;;;;;8.93;4.00;;;;;;;10.89;100.00;97330.88;5045318;28;20279;-72
2022/10/06 04:32:54;;;;;;;8.67;3.93;;;;;;;10.94;100.00;97332.88;5044053;28;20739;-71
2022/10/06 04:35:20;;;;;;;7.97;4.17;;;;;;;10.79;100.00;97338.03;5044892;28;20452;-71
2022/10/06 04:37:47;;;;;;;6.83;3.70;;;;;;;10.71;100.00;97335.31;5045014;28;20783;-71
2022/10/06 04:40:13;;;;;;;7.27;4.07;;;;;;;10.71;100.00;97338.78;5044439;28;20221;-71
2022/10/06 04:42:40;;;;;;;6.77;3.77;;;;;;;10.75;100.00;97344.59;5044169;28;20680;-71
2022/10/06 04:45:07;;;;;;;5.80;3.73;;;;;;;10.79;100.00;97340.66;5045176;28;20201;-71
2022/10/06 04:47:34;;;;;;;7.53;4.40;;;;;;;10.74;100.00;97348.19;5044842;28;20964;-71
2022/10/06 04:50:02;;;;;;;6.47;3.37;;;;;;;10.85;100.00;97345.34;5044187;28;20224;-71
2022/10/06 04:52:29;;;;;;;11.47;4.00;;;;;;;10.79;100.00;97353.84;5043644;28;20207;-71
2022/10/06 04:54:56;;;;;;;13.97;4.20;;;;;;;10.82;100.00;97353.53;5044848;28;20216;-71
2022/10/06 04:57:23;;;;;;;9.97;4.40;;;;;;;10.87;100.00;97357.41;5044573;28;20194;-71
2022/10/06 05:02:33;;;;;;;8.03;3.87;;;;;;;10.94;100.00;97367.16;5043591;28;20205;-72
2022/10/06 05:05:01;;;;;;;7.20;3.97;;;;;;;10.93;100.00;97371.78;5044053;28;20205;-71
2022/10/06 05:07:28;;;;;;;7.73;4.60;;;;;;;10.95;100.00;97375.91;5044081;28;20221;-71
2022/10/06 05:09:54;;;;;;;7.63;4.00;;;;;;;10.94;100.00;97376.91;5044559;28;20209;-71
2022/10/06 05:12:21;;;;;;;8.27;4.77;;;;;;;10.97;100.00;97379.22;5043332;28;20208;-71
2022/10/06 05:14:47;;;;;;;11.60;4.40;;;;;;;10.89;100.00;97384.44;5044432;28;20202;-70
2022/10/06 05:17:14;;;;;;;8.60;4.73;;;;;;;10.93;100.00;97384.97;5044041;28;20229;-71
2022/10/06 05:19:41;;;;;;;10.03;4.27;;;;;;;10.94;100.00;97388.25;5043854;28;20204;-70
2022/10/06 05:22:08;;;;;;;9.20;4.33;;;;;;;11.03;100.00;97389.16;5043709;28;20225;-71
2022/10/06 05:24:35;;;;;;;10.00;4.40;;;;;;;10.91;100.00;97390.38;5043624;28;20939;-71
2022/10/06 05:27:02;;;;;;;9.20;4.30;;;;;;;10.89;100.00;97391.53;5043639;28;20235;-71
2022/10/06 05:29:29;;;;;;;7.00;3.80;;;;;;;10.97;100.00;97390.63;5044223;28;20201;-71
2022/10/06 05:31:55;;;;;;;10.33;4.27;;;;;;;10.96;100.00;97396.03;5043504;28;20224;-70
2022/10/06 05:34:22;;;;;;;10.23;4.43;;;;;;;10.99;100.00;97395.72;5043022;28;20657;-71
2022/10/06 05:36:48;;;;;;;9.03;4.67;;;;;;;11.00;100.00;97405.31;5044138;28;20228;-71
2022/10/06 05:39:16;;;;;;;11.20;4.77;;;;;;;11.10;100.00;97406.06;5043850;28;20216;-71
2022/10/06 05:41:43;;;;;;;8.93;4.60;;;;;;;11.07;100.00;97406.34;5043632;28;20487;-71
2022/10/06 05:44:09;;;;;;;11.37;5.47;;;;;;;11.10;100.00;97412.16;5043219;28;20209;-71
2022/10/06 05:46:36;;;;;;;10.67;5.30;;;;;;;11.09;100.00;97418.41;5043193;28;20539;-71
2022/10/06 05:49:05;;;;;;;10.37;5.10;;;;;;;11.21;100.00;97417.19;5043492;28;20577;-70
2022/10/06 05:51:33;;;;;;;9.23;4.53;;;;;;;11.25;100.00;97425.63;5043390;28;20224;-69
2022/10/06 05:54:00;;;;;;;12.10;5.20;;;;;;;11.27;100.00;97426.31;5043095;28;20284;-71
2022/10/06 05:56:29;;;;;;;11.60;5.27;;;;;;;11.37;100.00;97425.25;5043812;28;20561;-72
2022/10/06 05:58:57;;;;;;;11.37;5.10;;;;;;;11.36;100.00;97430.69;5043309;28;20212;-71
2022/10/06 06:01:26;;;;;;;17.30;4.93;;;;;;;11.46;100.00;97434.88;5042983;28;20228;-72
2022/10/06 06:03:54;;;;;;;12.27;4.33;;;;;;;11.53;100.00;97433.31;5042623;28;20213;-70
2022/10/06 06:06:23;;;;;;;16.00;5.03;;;;;;;11.59;100.00;97443.25;5043129;28;20292;-71
2022/10/06 06:08:52;;;;;;;13.17;5.93;;;;;;;11.72;100.00;97446.31;5043332;28;20205;-71
2022/10/06 06:11:24;;;;;;;14.90;5.53;;;;;;;11.72;100.00;97452.44;5043142;28;20223;-71
2022/10/06 06:13:52;;;;;;;17.10;5.73;;;;;;;11.81;100.00;97464.72;5042567;28;20624;-71
2022/10/06 06:16:18;;;;;;;12.87;5.77;;;;;;;11.77;100.00;97478.38;5043240;28;20681;-72
2022/10/06 06:18:44;;;;;;;14.57;5.03;;;;;;;11.84;100.00;97474.97;5042214;28;20197;-72
2022/10/06 06:21:11;;;;;;;18.17;5.17;;;;;;;11.82;100.00;97484.03;5043247;28;20221;-71
2022/10/06 06:23:40;;;;;;;11.57;4.60;;;;;;;11.90;100.00;97481.44;5042537;28;20202;-71
2022/10/06 06:26:09;;;;;;;12.13;4.57;;;;;;;11.97;100.00;97493.06;5042511;28;20217;-71
2022/10/06 06:28:36;;;;;;;7.53;3.97;;;;;;;12.07;100.00;97491.13;5042641;28;20755;-71
2022/10/06 06:31:07;;;;;;;10.33;5.10;;;;;;;12.18;100.00;97502.25;5042469;28;20760;-70
2022/10/06 06:33:34;;;;;;;8.17;4.73;;;;;;;12.34;100.00;97499.72;5041957;28;20296;-71
2022/10/06 06:36:02;;;;;;;7.67;4.60;;;;;;;12.41;100.00;97501.56;5042840;28;20240;-71
2022/10/06 06:38:29;;;;;;;11.17;4.77;;;;;;;12.63;100.00;97498.38;5043003;28;20205;-71
2022/10/06 06:40:56;;;;;;;7.63;4.37;;;;;;;12.69;100.00;97500.38;5042296;28;20217;-71
2022/10/06 06:43:22;;;;;;;9.17;4.53;;;;;;;12.74;100.00;97506.03;5042184;28;20209;-71
2022/10/06 06:45:49;;;;;;;10.05;4.65;;;;;;;12.83;100.00;97507.72;5042865;28;20282;-71
2022/10/06 06:48:17;;;;;;;12.23;5.07;;;;;;;12.93;100.00;97511.06;5042415;28;20319;-70
2022/10/06 06:50:44;;;;;;;8.03;4.93;;;;;;;12.90;100.00;97508.75;5042462;28;20538;-71
2022/10/06 06:53:13;;;;;;;9.35;4.90;;;;;;;12.95;100.00;97511.75;5041842;28;20193;-71
2022/10/06 06:55:49;;;;;;;10.60;5.10;;;;;;;13.08;100.00;97510.28;5042991;28;20288;-72
2022/10/06 06:58:16;;;;;;;9.20;5.33;;;;;;;12.99;100.00;97521.81;5042511;28;20567;-71
2022/10/06 07:00:43;;;;;;;13.13;5.77;;;;;;;13.04;100.00;97519.53;5042455;28;20220;-72
2022/10/06 07:03:13;;;;;;;8.98;5.45;;;;;;;13.16;100.00;97518.25;5041879;28;20213;-72
2022/10/06 07:05:40;;;;;;;9.53;5.57;;;;;;;13.14;100.00;97522.06;5042493;28;20209;-71
2022/10/06 07:08:08;;;;;;;12.75;5.65;;;;;;;13.12;100.00;97529.31;5042049;28;20229;-72
2022/10/06 07:10:35;;;;;;;11.00;5.30;;;;;;;13.20;100.00;97524.03;5041875;28;20961;-72
2022/10/06 07:13:02;;;;;;;12.07;5.28;;;;;;;13.23;100.00;97529.84;5041948;28;20562;-70
2022/10/06 07:26:31;;;;;;;12.63;5.05;;;;;;;13.68;100.00;97544.31;5042128;28;20204;-71
2022/10/06 07:28:58;;;;;;;9.75;5.15;;;;;;;13.82;100.00;97543.63;5042058;28;20201;-71
2022/10/06 07:31:32;;;;;;;9.77;5.10;;;;;;;13.94;100.00;97542.34;5045729;28;20290;-72
2022/10/06 07:33:58;;;;;;;14.27;5.43;;;;;;;14.03;100.00;97538.69;5045626;28;20285;-71
2022/10/06 07:36:27;;;;;;;10.70;6.05;;;;;;;14.11;100.00;97534.22;5046239;28;20220;-72
2022/10/06 07:38:54;;;;;;;8.32;4.90;;;;;;;14.13;100.00;97536.72;5045668;28;20239;-72
2022/10/06 07:41:21;;;;;;;11.20;4.80;;;;;;;14.27;100.00;97544.00;5045834;28;20225;-72
2022/10/06 07:43:47;;;;;;;12.07;4.90;;;;;;;14.38;100.00;97547.09;5045747;28;20197;-71
2022/10/06 07:46:14;;;;;;;9.32;5.18;;;;;;;14.34;100.00;97550.28;5045908;28;20205;-72
2022/10/06 07:48:42;;;;;;;13.63;5.22;;;;;;;14.58;100.00;97548.41;5045672;28;20225;-72
2022/10/06 07:51:13;;;;;;;13.35;5.30;;;;;;;14.67;100.00;97547.38;5046033;28;20263;-72
2022/10/06 07:53:43;;;;;;;12.57;5.13;;;;;;;14.78;100.00;97545.19;5045130;28;21176;-71
2022/10/06 07:56:11;;;;;;;13.88;5.07;;;;;;;14.77;100.00;97540.06;5045596;28;20487;-70
2022/10/06 07:58:38;;;;;;;11.68;5.10;;;;;;;14.94;100.00;97545.13;5045952;28;20247;-71
2022/10/06 08:01:06;;;;;;;13.13;5.63;;;;;;;15.07;100.00;97549.88;5045788;28;20282;-72
2022/10/06 08:03:32;;;;;;;8.23;4.70;;;;;;;15.02;100.00;97547.75;5044936;28;20193;-72
2022/10/06 08:06:01;;;;;;;14.45;4.63;;;;;;;15.22;100.00;97546.34;5045493;28;20587;-70
2022/10/06 08:08:30;;;;;;;11.60;4.40;;;;;;;15.37;100.00;97549.91;5045241;28;20220;-72
2022/10/06 08:11:00;;;;;;;12.25;5.18;;;;;;;15.40;100.00;97558.38;5045672;28;20561;-72
2022/10/06 08:13:26;;;;;;;6.93;4.60;;;;;;;15.46;100.00;97556.84;5045009;28;20580;-71
2022/10/06 08:15:55;;;;;;;8.05;4.55;;;;;;;15.68;100.00;97551.56;5045150;28;20709;-72
2022/10/06 08:18:23;;;;;;;11.00;4.30;;;;;;;15.70;100.00;97549.53;5045487;28;20645;-71
2022/10/06 08:20:50;;;;;;;8.27;4.25;;;;;;;15.81;100.00;97554.47;5044965;28;20644;-71
2022/10/06 08:23:16;;;;;;;7.80;4.03;;;;;;;15.82;100.00;97549.97;5044800;28;20208;-72
2022/10/06 08:25:50;;;;;;;8.00;4.40;;;;;;;16.06;100.00;97551.44;5045258;28;20555;-70
2022/10/06 08:28:19;;;;;;;9.27;3.80;;;;;;;16.19;100.00;97561.44;5045186;28;20601;-70
2022/10/06 08:30:46;;;;;;;8.13;4.22;;;;;;;16.26;100.00;97567.75;5045272;28;20374;-72
2022/10/06 08:33:12;;;;;;;8.73;3.78;;;;;;;16.38;99.75;97572.47;5044160;28;20202;-72
2022/10/06 08:35:39;;;;;;;7.30;3.50;;;;;;;16.59;98.67;97569.91;5044627;28;20661;-71
2022/10/06 08:38:06;;;;;;;6.35;3.85;;;;;;;16.53;99.66;97570.63;5045059;28;20201;-72
2022/10/06 08:40:32;;;;;;;8.10;3.50;;;;;;;16.48;99.36;97575.66;5044743;28;20228;-72
2022/10/06 08:43:02;;;;;;;6.72;3.20;;;;;;;16.76;94.25;97582.88;5043288;28;20205;-71
2022/10/06 08:45:34;;;;;;;10.13;3.53;;;;;;;16.75;95.11;97581.22;5045004;28;20344;-73
2022/10/06 08:48:03;;;;;;;9.15;3.22;;;;;;;16.91;94.02;97582.88;5044496;28;20608;-71
2022/10/06 08:50:37;;;;;;;5.32;3.40;;;;;;;16.96;95.26;97591.16;5044829;28;20590;-71
2022/10/06 08:53:10;;;;;;;6.22;3.25;;;;;;;17.13;94.54;97586.28;5043820;28;20739;-72
2022/10/06 08:55:42;;;;;;;6.50;3.63;;;;;;;17.31;94.63;97583.22;5044827;28;20197;-72
2022/10/06 08:58:30;;;;;;;7.25;3.60;;;;;;;17.54;91.69;97584.78;5044793;28;20201;-71
2022/10/06 09:01:12;;;;;;;6.88;3.45;;;;;;;17.52;91.45;97585.97;5044774;28;20236;-72
2022/10/06 09:03:39;;;;;;;7.03;2.90;;;;;;;17.54;92.75;97591.94;5043691;28;20227;-72
2022/10/06 09:06:13;;;;;;;5.97;3.28;;;;;;;17.68;93.07;97589.25;5044579;28;20598;-72
2022/10/06 09:08:49;;;;;;;6.97;3.38;;;;;;;17.72;91.28;97590.53;5044366;28;20598;-70
2022/10/06 09:11:41;;;;;;;8.73;3.28;;;;;;;17.91;90.89;97582.72;5044554;28;20221;-70
2022/10/06 09:14:15;;;;;;;6.35;3.10;;;;;;;18.09;88.18;97582.28;5043593;28;20570;-71
2022/10/06 09:16:49;;;;;;;8.82;2.97;;;;;;;17.93;88.14;97575.34;5044402;28;20198;-71
2022/10/06 09:19:22;;;;;;;4.38;2.40;;;;;;;18.09;87.90;97579.63;5043831;28;20289;-72
2022/10/06 09:21:51;;;;;;;5.53;3.38;;;;;;;18.19;88.98;97580.97;5043558;28;20231;-71
2022/10/06 09:24:23;;;;;;;4.05;2.65;;;;;;;17.94;88.19;97593.00;5043292;28;20201;-72
2022/10/06 09:26:51;;;;;;;5.80;3.05;;;;;;;17.97;90.19;97586.47;5044400;28;20209;-72
2022/10/06 09:29:18;;;;;;;6.18;2.88;;;;;;;17.87;89.24;97591.28;5043791;28;20251;-71
2022/10/06 09:31:49;;;;;;;7.65;2.95;;;;;;;18.32;89.59;97589.09;5043741;28;20482;-70
2022/10/06 09:34:24;;;;;;;8.05;3.58;;;;;;;18.05;89.87;97600.50;5043297;28;20205;-72
2022/10/06 09:37:01;;;;;;;7.63;3.03;;;;;;;18.10;91.00;97597.25;5044382;28;20201;-71
2022/10/06 09:39:32;;;;;;;7.55;3.30;;;;;;;18.15;91.69;97600.19;5043940;28;20201;-72
2022/10/06 09:42:02;;;;;;;7.80;3.25;;;;;;;18.33;91.10;97593.44;5043597;28;20323;-72
2022/10/06 09:44:32;;;;;;;8.35;3.17;;;;;;;18.33;89.33;97595.25;5043197;28;20258;-71
2022/10/06 09:47:00;;;;;;;6.63;3.22;;;;;;;18.47;89.37;97596.00;5043603;28;20205;-73
2022/10/06 09:49:30;;;;;;;6.57;3.03;;;;;;;18.25;90.52;97590.88;5043296;28;20221;-70
2022/10/06 09:52:02;;;;;;;4.63;2.90;;;;;;;18.34;89.96;97593.22;5043424;28;20217;-72
2022/10/06 09:54:30;;;;;;;9.90;3.17;;;;;;;18.39;90.79;97593.47;5042735;28;20208;-71
2022/10/06 09:56:58;;;;;;;6.90;3.47;;;;;;;18.61;93.49;97597.78;5043080;28;20260;-72
2022/10/06 09:59:32;;;;;;;19.48;3.92;;;;;;;18.84;88.65;97595.69;5043699;28;20220;-71
2022/10/06 10:02:03;;;;;;;6.38;3.30;;;;;;;18.85;89.19;97594.66;5043561;28;20221;-73
2022/10/06 10:04:32;;;;;;;6.93;3.55;;;;;;;18.67;89.93;97597.00;5042715;28;20207;-72
2022/10/06 10:07:16;;;;;;;7.00;3.22;;;;;;;18.59;88.73;97594.44;5043280;28;20205;-72
2022/10/06 10:09:42;;;;;;;5.53;3.67;;;;;;;18.51;89.06;97596.47;5043310;28;20557;-72
2022/10/06 10:12:26;;;;;;;6.72;3.65;;;;;;;18.88;89.17;97596.13;5043226;28;20227;-72
2022/10/06 10:14:55;;;;;;;5.75;3.22;;;;;;;18.66;87.93;97597.16;5043088;28;20208;-72
2022/10/06 10:17:43;;;;;;;8.50;3.28;;;;;;;19.02;87.87;97601.34;5042872;28;20682;-72
2022/10/06 10:20:27;;;;;;;4.63;2.60;;;;;;;18.85;86.18;97594.66;5043099;28;20225;-72
2022/10/06 10:22:55;;;;;;;4.18;2.40;;;;;;;18.66;86.66;97600.69;5042550;28;20212;-72
2022/10/06 10:25:39;;;;;;;7.38;2.75;;;;;;;18.42;85.97;97597.63;5043000;28;20193;-70
2022/10/06 10:28:15;;;;;;;6.55;3.10;;;;;;;18.66;87.29;97598.00;5042794;28;20237;-71
2022/10/06 10:30:52;;;;;;;6.35;2.50;;;;;;;18.80;87.69;97597.09;5043098;28;20231;-71
2022/10/06 10:33:31;;;;;;;6.15;2.90;;;;;;;18.99;84.32;97597.22;5042230;28;20228;-72
2022/10/06 10:36:00;;;;;;;11.05;2.47;;;;;;;18.93;84.47;97603.34;5042553;28;20844;-73
2022/10/06 10:38:28;;;;;;;6.15;2.70;;;;;;;18.89;84.34;97600.41;5042494;28;20284;-72
2022/10/06 10:41:00;;;;;;;6.68;2.30;;;;;;;18.98;85.39;97600.09;5043034;28;20259;-71
2022/10/06 10:43:30;;;;;;;7.25;2.40;;;;;;;18.98;85.23;97594.75;5041933;28;20211;-70
2022/10/06 10:46:03;;;;;;;5.85;2.00;;;;;;;19.01;83.85;97597.00;5042427;28;20452;-72
2022/10/06 10:48:36;;;;;;;9.10;2.15;;;;;;;18.87;83.47;97592.59;5041899;28;20221;-72
2022/10/06 10:51:07;;;;;;;3.42;1.75;;;;;;;18.75;83.28;97591.50;5042464;28;20662;-71
2022/10/06 10:53:45;;;;;;;5.80;1.58;;;;;;;18.99;82.60;97593.69;5042009;28;20251;-70
2022/10/06 10:56:15;;;;;;;3.75;1.65;;;;;;;19.03;85.48;97589.63;5042714;28;20193;-70
2022/10/06 10:58:42;;;;;;;4.95;1.83;;;;;;;19.02;84.14;97585.31;5042712;28;20196;-72
2022/10/06 11:01:18;;;;;;;4.65;1.73;;;;;;;19.09;81.56;97586.19;5042329;28;20225;-72
2022/10/06 11:03:55;;;;;;;6.25;1.60;;;;;;;19.08;81.34;97592.56;5041862;28;20575;-72
2022/10/06 11:06:42;;;;;;;5.38;1.35;;;;;;;19.33;78.36;97594.53;5041591;28;20219;-72
2022/10/06 11:09:13;;;;;;;6.45;1.42;;;;;;;19.46;77.81;97589.25;5042121;28;20266;-70
2022/10/06 11:11:53;;;;;;;2.60;1.42;;;;;;;19.47;77.16;97590.09;5042045;28;20225;-70
2022/10/06 11:14:32;;;;;;;2.90;1.30;;;;;;;19.68;77.12;97583.59;5041841;28;20207;-71
2022/10/06 11:17:05;;;;;;;3.17;1.45;;;;;;;19.71;75.85;97588.53;5042465;28;20204;-72
2022/10/06 11:19:44;;;;;;;3.83;1.30;;;;;;;19.67;76.01;97587.28;5042025;28;20198;-72
2022/10/06 11:22:17;;;;;;;4.07;1.40;;;;;;;19.79;76.68;97585.69;5041885;28;20452;-73
2022/10/06 11:24:53;;;;;;;4.18;1.40;;;;;;;19.86;77.49;97578.50;5042146;28;20201;-72
2022/10/06 11:27:32;;;;;;;3.60;1.48;;;;;;;19.79;76.48;97588.38;5042053;28;20216;-72
2022/10/06 11:30:05;;;;;;;1.98;1.30;;;;;;;19.75;78.37;97587.09;5041889;28;20472;-70
2022/10/06 11:32:45;;;;;;;4.47;1.70;;;;;;;19.63;81.26;97583.38;5041061;28;20201;-72
2022/10/06 11:35:20;;;;;;;3.42;1.52;;;;;;;19.73;80.65;97586.50;5041991;28;20681;-72
2022/10/06 11:37:53;;;;;;;3.30;1.25;;;;;;;19.62;77.44;97579.03;5042149;28;20360;-72
2022/10/06 11:40:50;;;;;;;5.70;1.52;;;;;;;19.81;82.11;97583.63;5041834;28;20694;-70
2022/10/06 11:43:27;;;;;;;2.47;1.30;;;;;;;19.86;78.94;97581.19;5040229;28;20216;-70
2022/10/06 11:46:04;;;;;;;4.65;1.40;;;;;;;19.94;78.20;97582.88;5041827;28;20209;-72
2022/10/06 11:48:32;;;;;;;5.18;1.55;;;;;;;19.97;76.41;97579.78;5041978;28;20224;-72